createdAt,value
2019-02-27T00:01:17.586Z,16.90
2019-02-27T00:03:47.069Z,14.87
2019-02-27T00:06:16.590Z,15.90
2019-02-27T00:08:46.225Z,15.03
2019-02-27T00:11:15.854Z,15.97
2019-02-27T00:13:45.248Z,14.75
2019-02-27T00:16:14.583Z,14.47
2019-02-27T00:18:43.927Z,15.10
2019-02-27T00:21:13.539Z,16.07
2019-02-27T00:23:42.881Z,15.50
2019-02-27T00:26:12.567Z,13.07
2019-02-27T00:28:43.094Z,14.57
2019-02-27T00:31:12.735Z,14.20
2019-02-27T00:33:42.080Z,15.20
2019-02-27T00:36:12.224Z,14.97
2019-02-27T00:38:42.612Z,14.20
2019-02-27T00:41:12.972Z,14.93
2019-02-27T00:43:42.660Z,14.95
2019-02-27T00:46:13.313Z,14.17
2019-02-27T00:48:44.681Z,14.85
2019-02-27T00:51:14.296Z,16.00
2019-02-27T00:53:44.173Z,14.73
2019-02-27T00:56:14.041Z,14.13
2019-02-27T00:58:43.954Z,14.28
2019-02-27T01:01:13.674Z,17.05
2019-02-27T01:03:43.095Z,17.40
2019-02-27T01:06:14.809Z,17.43
2019-02-27T01:08:44.246Z,16.80
2019-02-27T01:11:18.108Z,13.93
2019-02-27T01:13:45.316Z,13.77
2019-02-27T01:16:17.338Z,15.80
2019-02-27T01:18:47.266Z,15.37
2019-02-27T01:21:18.922Z,15.17
2019-02-27T01:23:47.867Z,13.87
2019-02-27T01:26:17.217Z,14.40
2019-02-27T01:28:46.867Z,16.42
2019-02-27T01:31:16.457Z,14.30
2019-02-27T01:33:45.836Z,15.30
2019-02-27T01:36:15.189Z,15.30
2019-02-27T01:38:45.170Z,15.00
2019-02-27T01:41:14.518Z,14.27
2019-02-27T01:43:44.129Z,13.50
2019-02-27T01:46:13.465Z,14.07
2019-02-27T01:48:43.881Z,14.90
2019-02-27T01:51:13.434Z,14.10
2019-02-27T01:53:43.165Z,14.13
2019-02-27T01:56:12.486Z,12.83
2019-02-27T01:58:44.126Z,14.30
2019-02-27T02:01:13.191Z,14.03
2019-02-27T02:03:47.299Z,16.17
2019-02-27T02:06:13.980Z,15.33
2019-02-27T02:08:47.814Z,14.15
2019-02-27T02:11:14.371Z,14.47
2019-02-27T02:13:53.073Z,14.03
2019-02-27T02:16:34.913Z,14.87
2019-02-27T02:19:22.026Z,15.07
2019-02-27T02:21:54.555Z,15.80
2019-02-27T02:24:36.354Z,15.13
2019-02-27T02:27:25.468Z,16.67
2019-02-27T02:29:58.505Z,15.83
2019-02-27T08:11:15.370Z,23.60
2019-02-27T08:13:44.738Z,21.20
2019-02-27T08:16:14.419Z,19.52
2019-02-27T08:18:43.785Z,21.03
2019-02-27T08:21:13.667Z,21.60
2019-02-27T08:23:43.342Z,22.63
2019-02-27T08:26:12.725Z,22.87
2019-02-27T08:28:42.638Z,23.27
2019-02-27T08:31:12.323Z,22.55
2019-02-27T08:33:41.768Z,22.43
2019-02-27T08:36:11.491Z,22.17
2019-02-27T08:38:40.879Z,21.20
2019-02-27T08:41:10.742Z,20.80
2019-02-27T08:43:41.871Z,21.10
2019-02-27T08:46:11.523Z,20.93
2019-02-27T08:48:40.910Z,22.53
2019-02-27T08:51:10.571Z,22.93
2019-02-27T08:53:40.844Z,22.55
2019-02-27T08:56:12.402Z,22.10
2019-02-27T08:58:41.824Z,21.47
2019-02-27T09:01:11.639Z,20.68
2019-02-27T09:03:41.265Z,20.90
2019-02-27T09:06:10.681Z,19.90
2019-02-27T09:08:44.079Z,20.40
2019-02-27T09:11:14.646Z,19.93
2019-02-27T09:13:43.941Z,20.10
2019-02-27T09:16:13.646Z,18.97
2019-02-27T09:18:44.144Z,17.60
2019-02-27T09:21:13.638Z,19.43
2019-02-27T09:24:37.981Z,18.97
2019-02-27T09:27:07.699Z,20.10
2019-02-27T09:29:37.061Z,20.20
2019-02-27T09:32:09.300Z,20.00
2019-02-27T09:34:37.783Z,19.90
2019-02-27T09:37:08.071Z,20.40
2019-02-27T09:39:38.096Z,18.27
2019-02-27T09:42:07.722Z,18.57
2019-02-27T09:44:37.278Z,18.20
2019-02-27T09:47:06.739Z,17.83
2019-02-27T09:49:38.060Z,17.97
2019-02-27T09:52:07.806Z,18.83
2019-02-27T09:54:37.170Z,17.23
2019-02-27T09:57:07.957Z,18.97
2019-02-27T09:59:37.314Z,18.73
2019-02-27T10:02:09.297Z,18.30
2019-02-27T10:04:37.886Z,18.27
2019-02-27T10:07:07.582Z,18.40
2019-02-27T10:09:36.959Z,17.50
2019-02-27T10:12:06.614Z,18.67
2019-02-27T10:14:36.032Z,18.40
2019-02-27T10:17:06.719Z,18.27
2019-02-27T10:19:36.904Z,18.77
2019-02-27T10:22:06.293Z,18.93
2019-02-27T10:24:36.895Z,18.80
2019-02-27T10:27:07.887Z,19.40
2019-02-27T10:29:37.250Z,18.13
2019-02-27T10:32:06.875Z,18.50
2019-02-27T10:34:36.359Z,18.50
2019-02-27T10:37:06.053Z,18.30
2019-02-27T10:39:37.050Z,15.03
2019-02-27T10:42:06.852Z,15.80
2019-02-27T10:44:36.219Z,14.97
2019-02-27T10:47:05.878Z,14.23
2019-02-27T10:49:35.244Z,14.93
2019-02-27T10:52:05.020Z,13.70
2019-02-27T10:54:36.975Z,13.90
2019-02-27T10:57:06.027Z,13.83
2019-02-27T10:59:35.725Z,14.10
2019-02-27T11:02:05.111Z,13.83
2019-02-27T11:04:36.342Z,14.57
2019-02-27T11:07:07.139Z,14.43
2019-02-27T11:09:38.359Z,12.77
2019-02-27T11:12:07.596Z,14.93
2019-02-27T11:14:37.246Z,14.43
2019-02-27T11:17:07.270Z,15.48
2019-02-27T11:19:36.648Z,14.10
2019-02-27T11:22:06.143Z,15.37
2019-02-27T11:24:35.528Z,16.03
2019-02-27T11:27:06.035Z,14.57
2019-02-27T11:29:37.287Z,15.60
2019-02-27T11:32:07.008Z,15.57
2019-02-27T11:34:36.372Z,15.10
2019-02-27T11:37:06.058Z,15.15
2019-02-27T11:39:35.423Z,15.27
2019-02-27T11:42:05.125Z,15.17
2019-02-27T11:44:34.538Z,15.83
2019-02-27T11:47:04.629Z,15.93
2019-02-27T11:49:36.272Z,16.83
2019-02-27T11:52:05.318Z,16.50
2019-02-27T11:54:34.677Z,15.43
2019-02-27T11:57:04.405Z,16.50
2019-02-27T11:59:34.110Z,14.60
2019-02-27T12:02:03.487Z,17.00
2019-02-27T12:04:33.156Z,15.13
2019-02-27T12:07:02.535Z,16.47
2019-02-27T12:09:35.119Z,14.60
2019-02-27T12:12:05.214Z,16.17
2019-02-27T12:14:34.932Z,15.10
2019-02-27T12:17:04.313Z,16.60
2019-02-27T12:19:33.682Z,15.90
2019-02-27T12:22:03.759Z,16.30
2019-02-27T12:24:33.568Z,15.70
2019-02-27T12:27:03.587Z,15.35
2019-02-27T12:29:33.253Z,14.45
2019-02-27T12:32:02.637Z,15.40
2019-02-27T12:34:34.026Z,15.40
2019-02-27T12:37:03.411Z,15.07
2019-02-27T12:39:32.763Z,15.60
2019-02-27T12:42:04.134Z,15.63
2019-02-27T12:44:34.560Z,14.63
2019-02-27T12:47:05.534Z,14.70
2019-02-27T12:49:35.502Z,15.63
2019-02-27T12:52:04.889Z,15.07
2019-02-27T12:54:34.460Z,14.07
2019-02-27T12:57:04.116Z,15.00
2019-02-27T12:59:33.662Z,15.30
2019-02-27T13:02:08.250Z,16.20
2019-02-27T13:04:34.585Z,15.17
2019-02-27T13:07:03.981Z,16.20
2019-02-27T13:09:33.413Z,15.87
2019-02-27T13:12:02.798Z,15.20
2019-02-27T13:14:33.263Z,15.20
2019-02-27T13:17:03.386Z,16.60
2019-02-27T13:19:32.780Z,15.70
2019-02-27T13:22:02.501Z,15.60
2019-02-27T13:24:32.161Z,15.63
2019-02-27T13:27:01.545Z,15.20
2019-02-27T13:29:31.280Z,16.07
2019-02-27T13:32:00.663Z,16.90
2019-02-27T13:34:30.592Z,15.53
2019-02-27T13:36:59.979Z,16.80
2019-02-27T13:39:29.593Z,14.97
2019-02-27T13:41:58.977Z,15.93
2019-02-27T13:44:28.824Z,15.37
2019-02-27T13:46:58.781Z,15.65
2019-02-27T13:49:28.397Z,15.57
2019-02-27T13:51:57.871Z,14.97
2019-02-27T13:54:27.597Z,14.93
2019-02-27T13:56:56.975Z,14.37
2019-02-27T13:59:26.574Z,16.70
2019-02-27T14:01:56.254Z,15.50
2019-02-27T14:04:27.095Z,14.60
2019-02-27T14:06:56.777Z,15.32
2019-02-27T14:09:26.140Z,14.97
2019-02-27T14:11:58.430Z,15.83
2019-02-27T14:14:26.906Z,15.37
2019-02-27T14:16:56.900Z,14.30
2019-02-27T14:19:26.654Z,14.83
2019-02-27T14:21:56.225Z,14.20
2019-02-27T14:24:25.729Z,13.90
2019-02-27T14:26:55.091Z,14.83
2019-02-27T14:29:28.973Z,15.00
2019-02-27T14:31:57.350Z,15.40
2019-02-27T14:34:27.448Z,14.53
2019-02-27T14:36:57.328Z,15.53
2019-02-27T14:39:29.428Z,13.37
2019-02-27T14:41:59.477Z,14.40
2019-02-27T14:44:31.478Z,14.20
2019-02-27T14:47:00.248Z,15.37
2019-02-27T14:49:29.858Z,15.23
2019-02-27T14:51:59.224Z,14.18
2019-02-27T14:54:29.178Z,14.80
2019-02-27T14:56:59.586Z,15.50
2019-02-27T14:59:31.278Z,15.10
2019-02-27T15:02:00.225Z,13.33
2019-02-27T15:04:32.347Z,14.00
2019-02-27T15:07:01.044Z,15.53
2019-02-27T15:09:30.477Z,14.70
2019-02-27T15:11:59.865Z,16.17
2019-02-27T15:14:31.092Z,14.30
2019-02-27T15:17:00.306Z,14.77
2019-02-27T15:19:30.732Z,15.10
2019-02-27T15:22:00.208Z,16.90
2019-02-27T15:24:31.937Z,14.20
2019-02-27T15:27:01.019Z,13.07
2019-02-27T15:29:30.467Z,13.47
2019-02-27T15:32:01.082Z,13.90
2019-02-27T15:34:31.030Z,12.93
2019-02-27T15:37:01.007Z,13.97
2019-02-27T15:39:31.475Z,14.83
2019-02-27T15:42:03.202Z,12.33
2019-02-27T15:44:34.497Z,14.00
2019-02-27T15:47:03.925Z,12.00
2019-02-27T15:49:34.379Z,12.73
2019-02-27T15:52:07.083Z,12.33
2019-02-27T15:54:35.145Z,12.37
2019-02-27T15:57:04.524Z,12.87
2019-02-27T15:59:34.335Z,11.33
2019-02-27T16:02:04.330Z,12.00
2019-02-27T16:04:33.692Z,11.87
2019-02-27T16:07:03.177Z,12.60
2019-02-27T16:09:32.627Z,11.13
2019-02-27T16:12:02.017Z,12.30
2019-02-27T16:14:32.476Z,11.30
2019-02-27T16:17:02.062Z,11.17
2019-02-27T16:19:32.503Z,11.50
2019-02-27T16:22:02.439Z,9.60
2019-02-27T16:24:32.097Z,11.03
2019-02-27T16:27:02.020Z,11.80
2019-02-27T16:29:31.404Z,10.57
2019-02-27T16:32:01.635Z,11.50
2019-02-27T16:34:33.232Z,10.83
2019-02-27T16:37:02.395Z,12.60
2019-02-27T16:39:32.260Z,10.07
2019-02-27T16:42:05.205Z,10.27
2019-02-27T16:44:33.291Z,10.90
2019-02-27T16:47:03.586Z,9.67
2019-02-27T16:49:34.311Z,9.50
2019-02-27T16:52:07.919Z,11.73
2019-02-27T16:54:34.728Z,10.00
2019-02-27T16:57:04.290Z,9.73
2019-02-27T16:59:33.948Z,10.00
2019-02-27T17:02:04.022Z,10.83
2019-02-27T17:04:34.908Z,10.90
2019-02-27T17:07:04.383Z,11.70
2019-02-27T17:09:33.745Z,9.30
2019-02-27T17:12:04.274Z,11.30
2019-02-27T17:14:34.378Z,11.00
2019-02-27T17:17:05.350Z,10.63
2019-02-27T17:19:36.536Z,9.93
2019-02-27T17:22:05.827Z,10.87
2019-02-27T17:24:35.326Z,11.77
2019-02-27T17:27:04.707Z,10.73
2019-02-27T17:29:34.633Z,11.13
2019-02-27T17:32:04.328Z,12.20
2019-02-27T17:34:35.406Z,11.10
2019-02-27T17:37:07.128Z,12.30
2019-02-27T17:39:36.521Z,12.07
2019-02-27T17:42:05.912Z,12.20
2019-02-27T17:44:37.897Z,12.53
2019-02-27T17:47:08.281Z,12.23
2019-02-27T17:49:37.626Z,12.73
2019-02-27T17:52:11.337Z,11.63
2019-02-27T17:54:38.893Z,12.30
2019-02-27T17:57:08.545Z,13.17
2019-02-27T17:59:39.121Z,11.47
2019-02-27T18:02:09.318Z,11.05
2019-02-27T18:04:39.450Z,11.23
2019-02-27T18:07:09.795Z,11.20
2019-02-27T18:09:40.464Z,12.30
2019-02-27T18:12:09.886Z,11.53
2019-02-27T18:14:43.900Z,13.55
2019-02-27T18:17:10.950Z,14.40
2019-02-27T18:19:40.603Z,13.65
2019-02-27T18:22:13.971Z,16.03
2019-02-27T18:24:43.221Z,15.58
2019-02-27T18:27:12.594Z,12.93
2019-02-27T18:29:43.706Z,11.78
2019-02-27T18:32:13.897Z,14.43
2019-02-27T18:34:43.553Z,12.98
2019-02-27T18:37:14.508Z,14.27
2019-02-27T18:39:44.014Z,14.83
2019-02-27T18:42:13.665Z,13.60
2019-02-27T18:44:43.046Z,13.67
2019-02-27T18:47:12.733Z,14.07
2019-02-27T18:49:42.959Z,13.35
2019-02-27T18:52:21.031Z,14.17
2019-02-27T18:54:43.778Z,12.90
2019-02-27T18:57:13.415Z,11.87
2019-02-27T18:59:43.073Z,12.67
2019-02-27T19:02:12.677Z,10.97
2019-02-27T19:04:43.040Z,12.35
2019-02-27T19:07:12.882Z,11.50
2019-02-27T19:09:43.098Z,11.03
2019-02-27T19:12:12.684Z,10.97
2019-02-27T19:14:43.014Z,11.10
2019-02-27T19:17:12.397Z,11.33
2019-02-27T19:54:02.841Z,13.07
2019-02-27T19:56:35.300Z,12.77
2019-02-27T19:59:03.338Z,12.90
2019-02-27T20:01:33.006Z,14.77
2019-02-27T20:04:02.396Z,12.40
2019-02-27T20:06:32.255Z,12.43
2019-02-27T20:09:02.001Z,12.00
2019-02-27T20:11:33.034Z,11.70
2019-02-27T20:14:03.226Z,12.03
2019-02-27T20:16:33.010Z,12.15
2019-02-27T20:19:02.459Z,11.50
2019-02-27T20:21:32.084Z,13.17
2019-02-27T20:24:02.420Z,12.80
2019-02-27T20:26:33.004Z,13.10
2019-02-27T20:29:04.172Z,12.20
2019-02-27T20:31:33.497Z,13.33
2019-02-27T20:34:03.103Z,13.60
2019-02-27T20:36:33.181Z,13.10
2019-02-27T20:39:04.567Z,13.33
2019-02-27T20:41:39.700Z,11.53
2019-02-27T20:44:06.939Z,11.45
2019-02-27T20:46:37.395Z,12.67
2019-02-27T20:49:07.073Z,11.97
2019-02-27T20:51:39.790Z,12.70
2019-02-27T20:54:07.516Z,12.50
2019-02-27T20:56:37.088Z,12.47
2019-02-27T20:59:06.474Z,12.87
2019-02-27T21:01:36.138Z,13.13
2019-02-27T21:04:05.542Z,12.40
2019-02-27T21:06:34.922Z,12.97
2019-02-27T21:09:10.942Z,12.23
2019-02-27T21:11:38.382Z,12.90
2019-02-27T21:14:08.063Z,13.38
2019-02-27T21:16:40.193Z,13.70
2019-02-27T21:19:09.344Z,13.53
2019-02-27T21:21:38.717Z,14.47
2019-02-27T21:24:08.364Z,12.93
2019-02-27T21:26:37.730Z,13.17
2019-02-27T21:29:08.860Z,13.10
2019-02-27T21:31:38.335Z,12.60
2019-02-27T21:34:07.739Z,11.40
2019-02-27T21:36:37.522Z,12.30
2019-02-27T21:39:07.223Z,13.18
2019-02-27T21:41:38.369Z,12.17
2019-02-27T21:44:07.759Z,13.40
2019-02-27T21:46:37.421Z,12.43
2019-02-27T21:49:06.809Z,12.27
2019-02-27T21:51:37.797Z,12.70
2019-02-27T21:54:07.342Z,12.33
2019-02-27T21:56:36.722Z,14.00
2019-02-27T21:59:06.380Z,13.60
2019-02-27T22:01:35.812Z,12.73
2019-02-27T22:04:05.472Z,13.20
2019-02-27T22:06:35.603Z,13.63
2019-02-27T22:09:05.859Z,12.10
2019-02-27T22:11:36.689Z,13.80
2019-02-27T22:14:06.407Z,12.50
2019-02-27T22:16:35.846Z,15.37
2019-02-27T22:19:06.479Z,12.80
2019-02-27T22:21:36.830Z,14.07
2019-02-27T22:24:07.487Z,13.27
2019-02-27T22:26:37.585Z,13.37
2019-02-27T22:29:07.717Z,12.70
2019-02-27T22:31:40.273Z,13.70
2019-02-27T22:34:08.598Z,13.33
2019-02-27T22:36:38.266Z,14.00
2019-02-27T22:39:10.805Z,13.50
2019-02-27T22:41:41.716Z,14.27
2019-02-27T22:44:12.451Z,14.83
2019-02-27T22:46:43.770Z,14.47
2019-02-27T22:49:13.454Z,14.30
2019-02-27T22:51:44.862Z,14.18
2019-02-27T22:54:14.912Z,14.17
2019-02-27T22:56:49.985Z,14.10
2019-02-27T22:59:15.663Z,14.03
2019-02-27T23:01:49.310Z,13.22
2019-02-27T23:04:17.468Z,13.98
2019-02-27T23:06:47.886Z,15.80
2019-02-27T23:09:18.046Z,14.20
2019-02-27T23:11:47.855Z,15.97
2019-02-27T23:14:18.824Z,14.77
2019-02-27T23:16:49.208Z,15.40
2019-02-27T23:19:19.003Z,15.90
2019-02-27T23:21:48.679Z,17.10
2019-02-27T23:24:18.073Z,14.87
2019-02-27T23:26:47.869Z,16.52
2019-02-27T23:29:17.588Z,15.57
2019-02-27T23:31:47.510Z,18.37
2019-02-27T23:34:16.896Z,17.20
2019-02-27T23:36:46.565Z,16.87
2019-02-27T23:39:15.952Z,17.03
2019-02-27T23:41:45.885Z,17.60
2019-02-27T23:44:15.575Z,15.65
2019-02-27T23:46:49.743Z,17.47
2019-02-27T23:49:17.288Z,19.27
2019-02-27T23:51:48.563Z,19.17
2019-02-27T23:54:19.208Z,18.30
2019-02-27T23:56:51.839Z,18.87
2019-02-27T23:59:19.949Z,19.70
